createdAt,value
2022-08-03T00:02:04.329Z,3.45
2022-08-03T00:04:34.120Z,2.90
2022-08-03T00:06:52.253Z,3.20
2022-08-03T00:09:10.449Z,3.25
2022-08-03T00:11:28.288Z,3.05
2022-08-03T00:13:46.107Z,2.92
2022-08-03T00:16:03.945Z,3.60
2022-08-03T00:18:21.839Z,3.15
2022-08-03T00:20:39.645Z,3.08
2022-08-03T00:22:57.724Z,4.20
2022-08-03T00:25:15.568Z,2.88
2022-08-03T00:27:33.321Z,2.88
2022-08-03T00:29:59.989Z,3.10
2022-08-03T00:32:18.250Z,3.22
2022-08-03T00:34:57.718Z,3.83
2022-08-03T00:37:16.694Z,3.58
2022-08-03T00:39:34.788Z,3.35
2022-08-03T00:41:52.596Z,2.95
2022-08-03T00:44:10.376Z,3.40
2022-08-03T00:46:28.148Z,3.50
2022-08-03T00:48:46.122Z,3.45
2022-08-03T00:51:03.940Z,3.30
2022-08-03T00:53:21.908Z,3.20
2022-08-03T00:55:40.531Z,3.33
2022-08-03T00:57:59.541Z,3.42
2022-08-03T01:00:19.493Z,3.42
2022-08-03T01:02:38.166Z,3.20
2022-08-03T01:04:58.011Z,3.20
2022-08-03T01:07:22.055Z,3.88
2022-08-03T01:10:00.040Z,3.20
2022-08-03T01:12:23.360Z,3.22
2022-08-03T01:14:52.459Z,3.13
2022-08-03T01:17:13.943Z,3.50
2022-08-03T01:19:40.933Z,3.03
2022-08-03T01:22:17.512Z,3.63
2022-08-03T01:24:46.416Z,3.10
2022-08-03T01:27:08.035Z,3.00
2022-08-03T01:29:44.915Z,3.10
2022-08-03T01:32:53.660Z,3.08
2022-08-03T01:34:56.060Z,3.05
2022-08-03T01:37:17.511Z,3.30
2022-08-03T01:39:38.074Z,3.47
2022-08-03T01:42:00.921Z,3.45
2022-08-03T01:44:30.230Z,3.28
2022-08-03T01:46:51.360Z,3.67
2022-08-03T01:49:11.301Z,3.38
2022-08-03T01:51:58.488Z,3.30
2022-08-03T01:54:07.836Z,3.10
2022-08-03T01:56:26.860Z,3.55
2022-08-03T01:58:45.115Z,3.42
2022-08-03T02:01:04.201Z,3.40
2022-08-03T02:03:23.981Z,3.70
2022-08-03T02:05:41.869Z,3.17
2022-08-03T02:07:59.966Z,3.53
2022-08-03T02:10:35.509Z,3.50
2022-08-03T02:12:54.437Z,3.42
2022-08-03T02:15:13.197Z,3.42
2022-08-03T02:17:39.832Z,3.47
2022-08-03T02:19:59.849Z,3.50
2022-08-03T02:22:18.480Z,3.50
2022-08-03T02:24:36.340Z,3.42
2022-08-03T02:26:55.820Z,3.42
2022-08-03T02:29:16.084Z,4.15
2022-08-03T02:31:34.652Z,3.60
2022-08-03T02:33:54.158Z,3.63
2022-08-03T02:36:12.396Z,3.40
2022-08-03T02:38:32.653Z,3.30
2022-08-03T02:40:51.460Z,3.30
2022-08-03T02:43:11.516Z,3.58
2022-08-03T02:45:30.211Z,3.40
2022-08-03T02:47:53.350Z,3.67
2022-08-03T02:50:14.010Z,3.70
2022-08-03T02:52:33.723Z,3.55
2022-08-03T02:54:53.169Z,3.22
2022-08-03T02:57:12.202Z,3.60
2022-08-03T02:59:31.350Z,3.38
2022-08-03T03:01:49.789Z,3.30
2022-08-03T03:04:08.312Z,3.50
2022-08-03T03:06:27.319Z,3.40
2022-08-03T03:08:48.443Z,3.53
2022-08-03T03:11:06.387Z,3.50
2022-08-03T03:13:24.511Z,3.67
2022-08-03T03:15:43.002Z,3.60
2022-08-03T03:18:01.761Z,3.58
2022-08-03T03:20:28.943Z,3.88
2022-08-03T03:22:49.227Z,3.50
2022-08-03T03:25:07.524Z,3.90
2022-08-03T03:27:25.894Z,3.65
2022-08-03T03:29:45.317Z,3.83
2022-08-03T03:32:04.187Z,3.42
2022-08-03T03:34:26.957Z,3.83
2022-08-03T03:36:46.501Z,3.97
2022-08-03T03:39:15.507Z,3.60
2022-08-03T03:41:33.951Z,3.67
2022-08-03T03:43:52.747Z,3.70
2022-08-03T03:46:13.554Z,3.45
2022-08-03T03:48:32.219Z,4.13
2022-08-03T03:50:50.772Z,3.83
2022-08-03T03:53:12.112Z,3.78
2022-08-03T03:55:30.566Z,3.53
2022-08-03T03:57:48.575Z,3.70
2022-08-03T04:00:07.042Z,4.15
2022-08-03T04:02:25.074Z,3.72
2022-08-03T04:05:01.493Z,3.67
2022-08-03T04:07:38.330Z,3.80
2022-08-03T04:10:28.975Z,3.90
2022-08-03T04:12:49.856Z,3.50
2022-08-03T04:15:08.967Z,2.95
2022-08-03T04:17:29.596Z,4.30
2022-08-03T04:19:51.500Z,3.70
2022-08-03T04:22:14.169Z,3.90
2022-08-03T04:24:35.359Z,4.15
2022-08-03T04:26:54.589Z,4.13
2022-08-03T04:29:13.784Z,3.70
2022-08-03T04:31:31.890Z,4.00
2022-08-03T04:33:51.207Z,4.00
2022-08-03T04:36:12.756Z,3.83
2022-08-03T04:38:34.672Z,3.83
2022-08-03T04:40:53.638Z,3.97
2022-08-03T04:43:12.271Z,4.15
2022-08-03T04:45:31.211Z,4.50
2022-08-03T04:47:49.755Z,3.85
2022-08-03T04:50:12.502Z,3.88
2022-08-03T04:52:32.174Z,4.35
2022-08-03T04:54:51.063Z,3.75
2022-08-03T04:57:09.020Z,4.05
2022-08-03T04:59:27.801Z,4.10
2022-08-03T05:01:45.991Z,3.83
2022-08-03T05:04:05.089Z,4.05
2022-08-03T05:06:25.130Z,4.28
2022-08-03T05:08:47.060Z,4.15
2022-08-03T05:11:09.645Z,4.28
2022-08-03T05:13:27.759Z,4.03
2022-08-03T05:15:46.812Z,4.25
2022-08-03T05:18:05.000Z,4.03
2022-08-03T05:20:22.966Z,4.60
2022-08-03T05:22:40.953Z,4.43
2022-08-03T05:24:58.962Z,4.60
2022-08-03T05:27:20.042Z,4.30
2022-08-03T05:29:38.246Z,4.78
2022-08-03T05:31:56.490Z,5.10
2022-08-03T05:34:14.517Z,5.60
2022-08-03T05:36:33.403Z,6.07
2022-08-03T05:38:51.843Z,6.28
2022-08-03T05:41:21.658Z,5.85
2022-08-03T05:43:42.085Z,5.95
2022-08-03T05:46:11.584Z,6.03
2022-08-03T05:48:30.815Z,5.88
2022-08-03T05:50:49.682Z,6.07
2022-08-03T05:53:07.894Z,6.20
2022-08-03T05:55:25.754Z,6.18
2022-08-03T05:57:43.949Z,6.28
2022-08-03T06:00:06.715Z,5.88
2022-08-03T06:02:29.261Z,6.43
2022-08-03T06:04:47.560Z,6.60
2022-08-03T06:07:05.474Z,6.57
2022-08-03T06:09:23.349Z,6.72
2022-08-03T06:11:49.797Z,6.22
2022-08-03T06:14:07.579Z,6.28
2022-08-03T06:16:25.354Z,5.80
2022-08-03T06:18:43.196Z,5.85
2022-08-03T06:21:15.629Z,6.00
2022-08-03T06:23:53.404Z,5.90
2022-08-03T06:26:13.295Z,5.47
2022-08-03T06:28:52.440Z,5.13
2022-08-03T06:31:09.143Z,5.43
2022-08-03T06:34:30.808Z,4.90
2022-08-03T06:36:05.459Z,4.70
2022-08-03T06:38:23.459Z,5.00
2022-08-03T06:40:42.565Z,5.05
2022-08-03T06:43:01.893Z,4.43
2022-08-03T06:45:21.592Z,4.82
2022-08-03T06:47:39.844Z,5.28
2022-08-03T06:50:12.592Z,5.00
2022-08-03T06:52:37.217Z,4.70
2022-08-03T06:54:56.639Z,4.53
2022-08-03T06:57:16.730Z,4.15
2022-08-03T07:00:07.918Z,4.35
2022-08-03T07:02:12.576Z,4.30
2022-08-03T07:04:36.977Z,4.60
2022-08-03T07:06:55.323Z,4.20
2022-08-03T07:09:13.072Z,3.75
2022-08-03T07:11:30.850Z,3.67
2022-08-03T07:13:48.647Z,3.42
2022-08-03T07:16:06.667Z,3.63
2022-08-03T07:18:29.322Z,3.47
2022-08-03T07:20:47.547Z,2.70
2022-08-03T07:23:05.376Z,3.10
2022-08-03T07:25:24.285Z,2.65
2022-08-03T07:27:51.403Z,2.90
2022-08-03T07:30:09.916Z,2.80
2022-08-03T07:32:31.099Z,2.95
2022-08-03T07:34:49.013Z,2.80
2022-08-03T07:37:06.831Z,2.60
2022-08-03T07:39:24.763Z,2.60
2022-08-03T07:41:42.565Z,3.90
2022-08-03T07:44:00.345Z,2.80
2022-08-03T07:46:19.116Z,3.22
2022-08-03T07:48:36.874Z,2.35
2022-08-03T07:50:54.635Z,2.05
2022-08-03T07:53:12.632Z,1.92
2022-08-03T07:55:30.669Z,2.40
2022-08-03T07:57:51.295Z,2.95
2022-08-03T08:00:16.706Z,2.33
2022-08-03T08:02:37.280Z,2.17
2022-08-03T08:04:55.491Z,1.98
2022-08-03T08:07:13.649Z,2.08
2022-08-03T08:09:33.872Z,2.35
2022-08-03T08:11:51.730Z,2.17
2022-08-03T08:14:09.891Z,2.38
2022-08-03T08:16:27.777Z,2.03
2022-08-03T08:18:45.708Z,1.95
2022-08-03T08:21:03.762Z,2.20
2022-08-03T08:23:43.539Z,2.40
2022-08-03T08:26:02.519Z,2.10
2022-08-03T08:28:29.460Z,2.45
2022-08-03T08:30:51.251Z,2.30
2022-08-03T08:33:15.701Z,2.72
2022-08-03T08:35:42.131Z,1.88
2022-08-03T08:38:04.352Z,2.30
2022-08-03T08:40:24.309Z,2.20
2022-08-03T08:42:57.539Z,2.40
2022-08-03T08:45:17.239Z,2.60
2022-08-03T08:47:51.530Z,2.50
2022-08-03T08:50:27.440Z,2.58
2022-08-03T08:52:47.435Z,2.22
2022-08-03T08:55:08.080Z,2.40
2022-08-03T08:57:42.790Z,2.60
2022-08-03T09:00:02.365Z,2.47
2022-08-03T09:02:20.835Z,2.70
2022-08-03T09:04:41.604Z,2.30
2022-08-03T09:07:19.247Z,2.20
2022-08-03T09:10:07.540Z,2.28
2022-08-03T09:12:39.165Z,2.22
2022-08-03T09:15:15.907Z,2.40
2022-08-03T09:17:41.998Z,2.50
2022-08-03T09:20:09.049Z,2.60
2022-08-03T09:22:31.895Z,2.97
2022-08-03T09:25:23.248Z,2.80
2022-08-03T09:27:45.214Z,2.20
2022-08-03T09:30:04.447Z,2.15
2022-08-03T09:32:46.766Z,2.30
2022-08-03T09:35:10.546Z,3.97
2022-08-03T09:38:12.116Z,2.25
2022-08-03T09:40:10.100Z,3.40
2022-08-03T09:42:32.377Z,2.50
2022-08-03T09:44:54.070Z,2.45
2022-08-03T09:47:13.279Z,2.70
2022-08-03T09:49:33.280Z,2.10
2022-08-03T09:52:33.568Z,2.17
2022-08-03T09:54:39.300Z,2.03
2022-08-03T09:56:58.390Z,2.20
2022-08-03T09:59:30.834Z,2.17
2022-08-03T10:01:55.626Z,2.28
2022-08-03T10:04:15.433Z,2.35
2022-08-03T10:06:36.006Z,2.25
2022-08-03T10:09:10.636Z,2.30
2022-08-03T10:11:36.234Z,2.13
2022-08-03T10:14:01.505Z,2.17
2022-08-03T10:16:23.292Z,2.10
2022-08-03T10:18:46.544Z,2.20
2022-08-03T10:21:06.193Z,2.47
2022-08-03T10:23:26.182Z,2.15
2022-08-03T10:25:53.252Z,2.40
2022-08-03T10:28:14.651Z,1.77
2022-08-03T10:30:33.994Z,2.10
2022-08-03T10:32:57.701Z,2.00
2022-08-03T10:35:20.903Z,2.22
2022-08-03T10:37:56.418Z,2.00
2022-08-03T10:40:39.637Z,2.05
2022-08-03T10:43:00.790Z,2.10
2022-08-03T10:45:24.831Z,1.52
2022-08-03T10:47:44.640Z,2.30
2022-08-03T10:50:03.689Z,2.47
2022-08-03T10:52:32.798Z,2.10
2022-08-03T10:55:29.606Z,2.42
2022-08-03T10:57:58.893Z,1.70
2022-08-03T11:00:28.210Z,1.90
2022-08-03T11:03:06.786Z,2.10
2022-08-03T11:05:29.981Z,2.03
2022-08-03T11:07:53.104Z,2.20
2022-08-03T11:10:30.454Z,2.03
2022-08-03T11:12:48.894Z,2.15
2022-08-03T11:15:09.350Z,2.25
2022-08-03T11:17:30.773Z,2.15
2022-08-03T11:19:56.462Z,1.80
2022-08-03T11:22:17.193Z,1.70
2022-08-03T11:24:43.157Z,2.20
2022-08-03T11:27:20.215Z,1.70
2022-08-03T11:29:38.423Z,1.60
2022-08-03T11:31:57.558Z,2.10
2022-08-03T11:34:19.031Z,1.98
2022-08-03T11:36:56.765Z,1.95
2022-08-03T11:39:17.046Z,2.38
2022-08-03T11:41:43.364Z,1.98
2022-08-03T11:44:06.327Z,2.03
2022-08-03T11:46:29.965Z,1.90
2022-08-03T11:48:49.421Z,2.25
2022-08-03T11:51:09.955Z,2.10
2022-08-03T11:53:29.157Z,2.00
2022-08-03T11:55:51.388Z,2.13
2022-08-03T11:59:16.426Z,1.90
2022-08-03T12:00:49.048Z,2.00
2022-08-03T12:03:08.487Z,1.90
2022-08-03T12:05:38.868Z,1.65
2022-08-03T12:08:03.952Z,1.80
2022-08-03T12:10:26.110Z,1.73
2022-08-03T12:12:46.752Z,1.75
2022-08-03T12:15:08.482Z,1.80
2022-08-03T12:17:35.996Z,2.40
2022-08-03T12:20:11.389Z,2.25
2022-08-03T12:22:58.731Z,2.35
2022-08-03T12:25:44.511Z,2.30
2022-08-03T12:28:58.294Z,1.80
2022-08-03T12:31:48.758Z,1.80
2022-08-03T12:34:17.251Z,1.80
2022-08-03T12:37:21.741Z,2.00
2022-08-03T12:40:21.435Z,1.60
2022-08-03T12:42:57.495Z,1.73
2022-08-03T12:45:40.058Z,1.70
2022-08-03T12:48:05.564Z,1.70
2022-08-03T12:50:28.420Z,1.63
2022-08-03T12:52:49.367Z,1.30
2022-08-03T12:55:15.238Z,1.60
2022-08-03T12:57:55.043Z,1.60
2022-08-03T13:00:29.605Z,1.38
2022-08-03T13:03:38.876Z,1.50
2022-08-03T13:06:03.262Z,1.65
2022-08-03T13:08:44.502Z,1.52
2022-08-03T13:11:21.845Z,1.55
2022-08-03T13:13:48.925Z,1.40
2022-08-03T13:16:23.704Z,1.60
2022-08-03T13:18:49.698Z,1.40
2022-08-03T13:21:13.269Z,1.40
2022-08-03T13:23:50.284Z,1.60
2022-08-03T13:26:20.083Z,1.40
2022-08-03T13:29:19.876Z,1.45
2022-08-03T13:31:50.402Z,1.45
2022-08-03T13:34:33.938Z,1.52
2022-08-03T13:37:09.760Z,1.30
2022-08-03T13:39:32.571Z,1.50
2022-08-03T13:44:53.848Z,1.70
2022-08-03T13:47:25.382Z,1.70
2022-08-03T13:49:54.342Z,1.50
2022-08-03T13:52:32.349Z,1.20
2022-08-03T13:55:01.606Z,1.55
2022-08-03T13:58:04.432Z,1.33
2022-08-03T14:00:58.376Z,1.40
2022-08-03T14:03:21.657Z,1.30
2022-08-03T14:05:39.652Z,1.40
2022-08-03T14:07:57.401Z,1.35
2022-08-03T14:10:22.226Z,1.27
2022-08-03T14:12:39.957Z,1.60
2022-08-03T14:15:01.128Z,1.55
2022-08-03T14:17:19.570Z,1.40
2022-08-03T14:19:53.079Z,1.80
2022-08-03T14:22:11.590Z,1.50
2022-08-03T14:24:29.410Z,1.90
2022-08-03T14:26:49.459Z,1.50
2022-08-03T14:29:07.470Z,1.60
2022-08-03T14:32:11.229Z,1.35
2022-08-03T14:34:05.189Z,1.40
2022-08-03T14:36:23.497Z,1.67
2022-08-03T14:38:41.631Z,1.50
2022-08-03T14:40:59.916Z,1.38
2022-08-03T14:43:18.251Z,3.20
2022-08-03T14:45:36.593Z,1.50
2022-08-03T14:50:27.939Z,2.38
2022-08-03T14:50:42.951Z,1.52
2022-08-03T14:53:05.995Z,1.40
2022-08-03T14:55:25.098Z,1.67
2022-08-03T14:57:47.070Z,1.50
2022-08-03T15:00:05.694Z,1.98
2022-08-03T15:02:25.955Z,1.83
2022-08-03T15:04:46.903Z,1.65
2022-08-03T15:07:05.294Z,1.30
2022-08-03T15:09:24.379Z,1.40
2022-08-03T15:11:45.853Z,1.23
2022-08-03T15:14:08.956Z,1.30
2022-08-03T15:16:30.088Z,1.63
2022-08-03T15:18:48.619Z,1.67
2022-08-03T15:21:16.665Z,1.55
2022-08-03T15:23:48.896Z,1.40
2022-08-03T15:26:30.654Z,1.50
2022-08-03T15:28:46.747Z,1.80
2022-08-03T15:31:05.398Z,1.60
2022-08-03T15:33:23.478Z,1.70
2022-08-03T15:35:41.936Z,1.40
2022-08-03T15:38:00.305Z,1.50
2022-08-03T15:40:18.647Z,1.60
2022-08-03T15:42:36.583Z,1.50
2022-08-03T15:44:55.252Z,1.83
2022-08-03T15:47:13.249Z,1.50
2022-08-03T15:49:32.099Z,1.88
2022-08-03T15:51:53.911Z,1.80
2022-08-03T15:54:11.867Z,3.35
2022-08-03T15:56:29.852Z,1.50
2022-08-03T15:59:09.725Z,1.52
2022-08-03T16:01:27.783Z,1.60
2022-08-03T16:03:46.193Z,1.60
2022-08-03T16:06:05.838Z,1.52
2022-08-03T16:08:25.144Z,1.70
2022-08-03T16:10:48.558Z,1.52
2022-08-03T16:15:53.354Z,1.98
2022-08-03T16:18:19.535Z,1.67
2022-08-03T16:21:01.578Z,1.65
2022-08-03T16:23:19.326Z,1.60
2022-08-03T16:25:38.253Z,1.67
2022-08-03T16:28:07.054Z,1.50
2022-08-03T16:30:28.496Z,1.58
2022-08-03T16:32:54.918Z,1.42
2022-08-03T16:35:21.174Z,1.30
2022-08-03T16:37:39.632Z,1.77
2022-08-03T16:40:07.741Z,1.70
2022-08-03T16:42:39.336Z,1.65
2022-08-03T16:45:00.848Z,1.50
2022-08-03T16:47:22.304Z,1.70
2022-08-03T16:49:53.838Z,1.40
2022-08-03T16:52:17.851Z,1.50
2022-08-03T16:54:39.678Z,1.50
2022-08-03T16:56:58.764Z,1.63
2022-08-03T16:59:22.016Z,1.95
2022-08-03T17:01:55.289Z,1.52
2022-08-03T17:04:33.697Z,1.60
2022-08-03T17:06:54.482Z,1.70
2022-08-03T17:09:20.516Z,1.70
2022-08-03T17:11:43.989Z,1.60
2022-08-03T17:14:09.747Z,1.60
2022-08-03T17:16:52.234Z,1.80
2022-08-03T17:19:14.062Z,1.60
2022-08-03T17:21:42.966Z,1.63
2022-08-03T17:24:19.982Z,1.85
2022-08-03T17:26:49.997Z,1.40
2022-08-03T17:29:11.153Z,1.63
2022-08-03T17:31:31.753Z,1.60
2022-08-03T17:33:54.706Z,1.63
2022-08-03T17:36:13.522Z,1.70
2022-08-03T17:38:34.667Z,2.45
2022-08-03T17:40:54.951Z,1.58
2022-08-03T17:44:13.194Z,1.48
2022-08-03T17:45:58.624Z,1.60
2022-08-03T17:48:24.915Z,1.90
2022-08-03T17:51:07.841Z,1.73
2022-08-03T17:53:46.199Z,1.50
2022-08-03T17:56:44.970Z,1.80
2022-08-03T17:58:55.264Z,1.70
2022-08-03T18:04:13.994Z,1.65
2022-08-03T18:06:35.529Z,2.10
2022-08-03T18:08:57.536Z,1.60
2022-08-03T18:11:21.852Z,1.75
2022-08-03T18:13:58.041Z,1.80
2022-08-03T18:16:22.525Z,1.70
2022-08-03T18:18:43.246Z,1.73
2022-08-03T18:23:43.468Z,1.90
2022-08-03T18:26:06.955Z,1.60
2022-08-03T18:28:28.747Z,1.80
2022-08-03T18:31:08.198Z,1.77
2022-08-03T18:34:16.594Z,2.22
2022-08-03T18:36:55.922Z,1.70
2022-08-03T18:39:26.199Z,2.10
2022-08-03T18:41:46.660Z,2.10
2022-08-03T18:44:07.983Z,2.03
2022-08-03T18:46:36.957Z,2.08
2022-08-03T18:49:29.126Z,2.08
2022-08-03T18:51:50.878Z,2.05
2022-08-03T18:54:57.807Z,2.40
2022-08-03T18:57:01.193Z,2.10
2022-08-03T18:59:29.998Z,2.45
2022-08-03T19:01:59.761Z,2.00
2022-08-03T19:04:35.330Z,2.10
2022-08-03T19:06:57.279Z,1.70
2022-08-03T19:09:34.481Z,1.92
2022-08-03T19:12:12.527Z,2.10
2022-08-03T19:14:42.765Z,1.98
2022-08-03T19:17:11.472Z,2.00
2022-08-03T19:19:43.337Z,2.28
2022-08-03T19:22:04.573Z,2.15
2022-08-03T19:24:28.081Z,2.53
2022-08-03T19:26:48.642Z,2.10
2022-08-03T19:29:15.138Z,2.10
2022-08-03T19:31:34.977Z,2.05
2022-08-03T19:33:57.231Z,1.98
2022-08-03T19:36:16.292Z,2.00
2022-08-03T19:38:44.063Z,2.00
2022-08-03T19:41:04.087Z,2.25
2022-08-03T19:43:22.997Z,2.20
2022-08-03T19:46:06.027Z,2.40
2022-08-03T19:48:22.250Z,3.00
2022-08-03T19:50:44.726Z,3.10
2022-08-03T19:53:11.790Z,2.75
2022-08-03T19:55:32.279Z,2.80
2022-08-03T19:57:57.675Z,2.60
2022-08-03T20:00:19.695Z,2.70
2022-08-03T20:02:39.315Z,2.95
2022-08-03T20:04:59.864Z,2.70
2022-08-03T20:07:22.588Z,2.72
2022-08-03T20:09:44.655Z,2.97
2022-08-03T20:12:03.022Z,2.63
2022-08-03T20:14:26.686Z,2.30
2022-08-03T20:16:44.674Z,7.25
2022-08-03T20:19:02.690Z,7.88
2022-08-03T20:21:33.016Z,2.55
2022-08-03T20:24:03.406Z,2.88
2022-08-03T20:27:07.695Z,2.55
2022-08-03T20:29:42.813Z,2.90
2022-08-03T20:32:08.502Z,2.50
2022-08-03T20:34:28.340Z,2.70
2022-08-03T20:36:46.572Z,2.70
2022-08-03T20:39:07.810Z,2.40
2022-08-03T20:43:45.366Z,2.80
2022-08-03T20:46:32.890Z,2.75
2022-08-03T20:48:43.353Z,2.88
2022-08-03T20:51:11.140Z,2.55
2022-08-03T20:53:59.438Z,2.70
2022-08-03T20:56:21.893Z,2.40
2022-08-03T20:58:41.729Z,2.30
2022-08-03T21:00:59.929Z,2.22
2022-08-03T21:03:17.813Z,2.42
2022-08-03T21:05:51.473Z,4.20
2022-08-03T21:08:12.738Z,3.70
2022-08-03T21:10:37.918Z,3.30
2022-08-03T21:13:03.970Z,1.67
2022-08-03T21:13:04.191Z,1.80
2022-08-03T21:13:15.495Z,2.53
2022-08-03T21:16:11.869Z,2.85
2022-08-03T21:18:14.910Z,2.30
2022-08-03T21:20:35.733Z,2.42
2022-08-03T21:23:02.119Z,2.20
2022-08-03T21:25:25.554Z,2.42
2022-08-03T21:27:44.091Z,2.40
2022-08-03T21:30:04.994Z,2.13
2022-08-03T21:32:32.801Z,2.45
2022-08-03T21:34:52.398Z,2.13
2022-08-03T21:37:10.443Z,2.40
2022-08-03T21:39:32.642Z,2.53
2022-08-03T21:41:50.539Z,2.22
2022-08-03T21:44:08.882Z,2.22
2022-08-03T21:46:27.422Z,2.47
2022-08-03T21:48:48.322Z,2.60
2022-08-03T21:51:06.897Z,2.53
2022-08-03T21:54:02.557Z,2.60
2022-08-03T21:56:08.540Z,2.60
2022-08-03T21:58:29.591Z,2.55
2022-08-03T22:00:47.716Z,2.40
2022-08-03T22:03:15.303Z,3.25
2022-08-03T22:05:43.994Z,2.78
2022-08-03T22:08:02.457Z,2.20
2022-08-03T22:10:20.672Z,2.40
2022-08-03T22:12:38.831Z,2.33
2022-08-03T22:15:01.419Z,2.13
2022-08-03T22:17:56.007Z,2.35
2022-08-03T22:20:01.977Z,2.40
2022-08-03T22:22:28.067Z,2.10
2022-08-03T22:24:50.161Z,2.45
2022-08-03T22:29:44.872Z,2.30
2022-08-03T22:32:02.888Z,2.38
2022-08-03T22:34:26.512Z,2.28
2022-08-03T22:36:44.863Z,2.50
2022-08-03T22:39:02.827Z,2.50
2022-08-03T22:41:21.109Z,2.60
2022-08-03T22:43:39.123Z,2.65
2022-08-03T22:46:09.398Z,2.60
2022-08-03T22:48:33.014Z,2.80
2022-08-03T22:50:51.848Z,2.70
2022-08-03T22:53:10.336Z,3.30
2022-08-03T22:55:28.057Z,8.82
2022-08-03T22:57:46.120Z,3.92
2022-08-03T23:00:14.487Z,3.30
2022-08-03T23:02:32.378Z,2.45
2022-08-03T23:04:52.037Z,2.40
2022-08-03T23:07:15.106Z,2.53
2022-08-03T23:09:33.380Z,3.30
2022-08-03T23:11:51.276Z,3.30
2022-08-03T23:14:13.045Z,2.58
2022-08-03T23:16:30.872Z,2.77
2022-08-03T23:18:49.556Z,2.60
2022-08-03T23:21:11.526Z,2.38
2022-08-03T23:23:30.545Z,2.42
2022-08-03T23:28:20.687Z,2.63
2022-08-03T23:30:38.475Z,2.60
2022-08-03T23:32:56.836Z,2.40
2022-08-03T23:36:17.300Z,2.80
2022-08-03T23:38:22.124Z,2.67
2022-08-03T23:40:42.211Z,2.53
2022-08-03T23:43:01.066Z,2.40
2022-08-03T23:45:19.772Z,2.70
2022-08-03T23:47:46.426Z,2.67
2022-08-03T23:50:05.550Z,2.45
2022-08-03T23:52:29.230Z,2.45
2022-08-03T23:54:49.697Z,2.90
2022-08-03T23:57:23.173Z,2.60
2022-08-03T23:59:50.156Z,2.70
